Astro Chloe — SVAL7 — position and weather

sailwx.info

Track history (hours):
 
Tides and Currents Weather Stations Pressure Air Temp Water Temp Dewpoint Dewpoint Depression Visibility Wind Speed Wind Dir Waves Ship Positions

Astro Chloe

Last reported at 2014-Sep-20 04:33 UTC. Time now 2014-Sep-20 06:00 UTC.
Position N 52°09' E 003°37'.

Length 333 m; draft 11 m.

Type: Ship (hazmat cat C). MMSI: 240839000.

Date/timePositionNaut miles runAvg speedWind from/ knotsBaromVisibWave heightAir tempDewpointWater temp
2014-Sep-20 04:33N 52°09' E 003°37'0 0.0
2014-Sep-20 03:33N 52°09' E 003°37'0 0.2
2014-Sep-20 02:33N 52°09' E 003°38'0 0.1
2014-Sep-20 01:33N 52°09' E 003°38'0 0.0
2014-Sep-20 00:33N 52°09' E 003°37'0 0.0
2014-Sep-19 23:33N 52°09' E 003°37'0 0.0
2014-Sep-19 22:33N 52°09' E 003°37'0 0.3
2014-Sep-19 21:33N 52°09' E 003°37'0 0.1
2014-Sep-19 20:33N 52°09' E 003°37'0 0.0
2014-Sep-19 19:33N 52°09' E 003°37'0 0.0
2014-Sep-19 18:27N 52°09' E 003°37'0 0.0
2014-Sep-19 17:33N 52°09' E 003°37'0 0.0
2014-Sep-19 16:33N 52°09' E 003°37'0 0.1
2014-Sep-19 15:21N 52°09' E 003°37'0 0.3
2014-Sep-19 14:33N 52°09' E 003°37'0 0.1
2014-Sep-19 13:33N 52°09' E 003°37'0 0.0
2014-Sep-19 12:33N 52°09' E 003°37'0 0.0
2014-Sep-19 11:33N 52°09' E 003°37'0 0.0
2014-Sep-19 10:33N 52°09' E 003°37'0 0.1
2014-Sep-19 09:33N 52°09' E 003°37'0 0.2
2014-Sep-19 08:33N 52°09' E 003°37'0 0.1
2014-Sep-19 07:33N 52°09' E 003°37'0 0.0
2014-Sep-19 06:33N 52°09' E 003°37'0 0.0
2014-Sep-19 05:33N 52°09' E 003°37'0 0.0
2014-Sep-19 04:33N 52°09' E 003°37'0 0.0
2014-Sep-19 03:33N 52°09' E 003°37'0 0.0
2014-Sep-19 02:33N 52°09' E 003°37'0 0.3
2014-Sep-19 01:33N 52°09' E 003°37'0 0.1
2014-Sep-19 00:33N 52°09' E 003°37'0 0.0
2014-Sep-18 23:33N 52°09' E 003°37'0 0.0
2014-Sep-18 22:33N 52°09' E 003°37'0 0.0
2014-Sep-18 21:33N 52°09' E 003°37'0 0.2
2014-Sep-18 20:33N 52°09' E 003°37'0 0.3
2014-Sep-18 19:33N 52°09' E 003°37'0 0.0
2014-Sep-18 18:33N 52°09' E 003°37'0 0.0
2014-Sep-18 17:33N 52°09' E 003°37'0 0.1
2014-Sep-18 16:33N 52°09' E 003°37'5 5.2
2014-Sep-18 15:34N 52°05' E 003°43'7 7.4
2014-Sep-18 14:33N 52°03' E 003°55'10 9.9
2014-Sep-18 13:33N 51°58' E 004°08'3 3.2
2014-Sep-18 12:32N 51°55' E 004°12'0 0.0
2014-Sep-18 11:32N 51°55' E 004°12'0 0.0
2014-Sep-18 10:32N 51°55' E 004°12'0 0.0
2014-Sep-18 09:32N 51°55' E 004°12'0 0.0
2014-Sep-18 08:32N 51°55' E 004°12'0 0.0
2014-Sep-18 07:32N 51°55' E 004°12'0 0.0
2014-Sep-18 06:32N 51°55' E 004°12'0 0.0
2014-Sep-18 05:32N 51°55' E 004°12'0 0.0
2014-Sep-18 03:32N 51°55' E 004°12'0 0.0
2014-Sep-18 02:32N 51°55' E 004°12'0 0.0
2014-Sep-18 01:32N 51°55' E 004°12'0 0.0
2014-Sep-18 00:32N 51°55' E 004°12'0 0.0
2014-Sep-17 23:32N 51°55' E 004°12'0 0.0
2014-Sep-17 22:32N 51°55' E 004°12'0 0.0
2014-Sep-17 21:32N 51°55' E 004°12'0 0.0
2014-Sep-17 20:32N 51°55' E 004°12'0 0.0
2014-Sep-17 19:32N 51°55' E 004°12'0 0.0
2014-Sep-17 18:32N 51°55' E 004°12'0 0.0
2014-Sep-17 17:32N 51°55' E 004°12'0 0.0
2014-Sep-17 16:32N 51°55' E 004°12'0 0.0
2014-Sep-17 15:32N 51°55' E 004°12'0 0.0
2014-Sep-17 14:32N 51°55' E 004°12'0 0.0
2014-Sep-17 13:32N 51°55' E 004°12'0 0.0
2014-Sep-17 12:32N 51°55' E 004°12'0 0.0
2014-Sep-17 11:32N 51°55' E 004°12'0 0.0
2014-Sep-17 10:32N 51°55' E 004°12'0 0.0
2014-Sep-17 09:32N 51°55' E 004°12'0 0.0
2014-Sep-17 08:32N 51°55' E 004°12'0 0.0
2014-Sep-17 07:32N 51°55' E 004°12'0 0.0
2014-Sep-17 06:32N 51°55' E 004°12'0 0.0
2014-Sep-17 05:32N 51°55' E 004°12'0 0.0
2014-Sep-17 04:32N 51°55' E 004°12'0 0.0
2014-Sep-17 03:32N 51°55' E 004°12'0 0.0
2014-Sep-17 02:32N 51°55' E 004°12'0 0.0
2014-Sep-17 01:32N 51°55' E 004°12'0 0.0
2014-Sep-17 00:32N 51°55' E 004°12'0 0.0
2014-Sep-16 23:32N 51°55' E 004°12'0 0.0
2014-Sep-16 22:32N 51°55' E 004°12'0 0.0
2014-Sep-16 21:32N 51°55' E 004°12'0 0.0
2014-Sep-16 20:32N 51°55' E 004°12'1 1.4
2014-Sep-16 19:34N 51°56' E 004°11'6 6.1
2014-Sep-16 18:34N 51°60' E 004°02'1111.3
2014-Sep-16 17:33N 52°01' E 003°44'9 9.4
2014-Sep-16 16:34N 51°60' E 003°29'1110.6
2014-Sep-16 15:33N 51°58' E 003°12'1110.9
2014-Sep-16 14:33N 51°56' E 002°54'1111.3
2014-Sep-16 13:33N 51°49' E 002°41'1211.6
2014-Sep-16 12:33N 51°40' E 002°29'1111.2
2014-Sep-16 11:34N 51°32' E 002°16'1111.2
2014-Sep-16 10:34N 51°23' E 002°04'1111.2
2014-Sep-16 09:33N 51°15' E 001°52'1312.9
2014-Sep-16 08:33N 51°05' E 001°40'1111.1
2014-Sep-16 07:33N 50°56' E 001°29'1413.8
2014-Sep-16 06:34N 50°43' E 001°22'1313.1
2014-Sep-16 05:33N 50°34' E 001°07'1313.0
2014-Sep-16 04:33N 50°28' E 000°49'1313.3
2014-Sep-16 03:32N 50°24' E 000°29'1913.8
2014-Sep-16 02:10N 50°17' E 000°01'911.7
2014-Sep-16 01:24N 50°10' W 000°07'1213.7
2014-Sep-16 00:33N 49°58' W 000°07'1212.4
2014-Sep-15 23:33N 49°46' W 000°06'1110.9
2014-Sep-15 22:33N 49°39' E 000°07'1 0.6
2014-Sep-15 21:24N 49°40' E 000°08'0 0.0
2014-Sep-15 20:33N 49°40' E 000°08'0 0.0
2014-Sep-15 19:24N 49°40' E 000°08'0 0.0
2014-Sep-15 18:30N 49°40' E 000°08'0 0.0
2014-Sep-15 17:27N 49°40' E 000°08'0 0.0
2014-Sep-15 16:15N 49°40' E 000°08'0 0.0
2014-Sep-15 15:03N 49°40' E 000°08'0 0.0
2014-Sep-15 14:33N 49°40' E 000°08'0 0.0
2014-Sep-15 13:30N 49°40' E 000°08'0 0.0
2014-Sep-15 12:27N 49°40' E 000°08'0 0.0
2014-Sep-15 11:33N 49°40' E 000°08'0 0.0
2014-Sep-15 10:33N 49°40' E 000°08'0 0.0
2014-Sep-15 09:09N 49°40' E 000°08'0 0.0
2014-Sep-15 08:21N 49°40' E 000°08'0 0.0
2014-Sep-15 07:21N 49°40' E 000°08'0 0.0
2014-Sep-15 06:33N 49°40' E 000°08'0 0.0
2014-Sep-15 05:30N 49°40' E 000°08'0 0.0
2014-Sep-15 04:27N 49°40' E 000°08'0 0.0
2014-Sep-15 03:30N 49°40' E 000°08'0 0.0
2014-Sep-15 02:33N 49°40' E 000°08'0 0.0
2014-Sep-15 01:30N 49°40' E 000°08'0 0.0
2014-Sep-15 00:30N 49°40' E 000°08'0 0.0
2014-Sep-14 23:24N 49°40' E 000°08'0 0.0
2014-Sep-14 22:09N 49°40' E 000°08'0 0.0
2014-Sep-14 20:33N 49°40' E 000°08'0 0.0
2014-Sep-14 18:21N 49°40' E 000°08'0 0.0
2014-Sep-14 17:09N 49°40' E 000°08'0 0.0
2014-Sep-14 16:27N 49°40' E 000°08'0 0.0
2014-Sep-14 15:27N 49°40' E 000°08'0 0.0
2014-Sep-14 13:33N 49°40' E 000°08'0 0.0
2014-Sep-14 08:30N 49°40' E 000°08'1 1.2
2014-Sep-14 07:32N 49°40' E 000°06'6 6.3
2014-Sep-14 06:33N 49°43' W 000°02'8 8.2
2014-Sep-14 05:33N 49°46' W 000°14'1 1.3
2014-Sep-14 04:33N 49°46' W 000°16'0 0.0
2014-Sep-14 03:27N 49°46' W 000°16'0 0.1
2014-Sep-14 02:33N 49°46' W 000°16'0 0.4
2014-Sep-14 01:27N 49°46' W 000°16'0 0.1
2014-Sep-13 21:21N 49°45' W 000°16'0 0.3
2014-Sep-13 20:33N 49°45' W 000°16'0 0.1
2014-Sep-13 19:33N 49°46' W 000°16'0 0.1
2014-Sep-13 18:33N 49°46' W 000°16'0 0.0
2014-Sep-13 17:33N 49°46' W 000°16'0 0.2
2014-Sep-13 16:33N 49°46' W 000°16'3 3.0
2014-Sep-13 15:31N 49°49' W 000°17'6 5.9
2014-Sep-13 14:33N 49°51' W 000°25'60 9.8
2014-Sep-13 08:27N 49°56' W 001°58'29411.4
2014-Sep-12 06:33N 46°38' W 007°24'  
Track history (hours):
 
Tides and Currents Weather Stations Pressure Air Temp Water Temp Dewpoint Dewpoint Depression Visibility Wind Speed Wind Dir Waves Ship Positions

Astro Chloe

Last reported at 2014-Sep-20 04:33 UTC. Time now 2014-Sep-20 06:00 UTC.
Position N 52°09' E 003°37'.

Length 333 m; draft 11 m.

Type: Ship (hazmat cat C). MMSI: 240839000.

Date/timePositionNaut miles runAvg speedWind from/ knotsBaromVisibWave heightAir tempDewpointWater temp
2014-Sep-20 04:33N 52°09' E 003°37'0 0.0
2014-Sep-20 03:33N 52°09' E 003°37'0 0.2
2014-Sep-20 02:33N 52°09' E 003°38'0 0.1
2014-Sep-20 01:33N 52°09' E 003°38'0 0.0
2014-Sep-20 00:33N 52°09' E 003°37'0 0.0
2014-Sep-19 23:33N 52°09' E 003°37'0 0.0
2014-Sep-19 22:33N 52°09' E 003°37'0 0.3
2014-Sep-19 21:33N 52°09' E 003°37'0 0.1
2014-Sep-19 20:33N 52°09' E 003°37'0 0.0
2014-Sep-19 19:33N 52°09' E 003°37'0 0.0
2014-Sep-19 18:27N 52°09' E 003°37'0 0.0
2014-Sep-19 17:33N 52°09' E 003°37'0 0.0
2014-Sep-19 16:33N 52°09' E 003°37'0 0.1
2014-Sep-19 15:21N 52°09' E 003°37'0 0.3
2014-Sep-19 14:33N 52°09' E 003°37'0 0.1
2014-Sep-19 13:33N 52°09' E 003°37'0 0.0
2014-Sep-19 12:33N 52°09' E 003°37'0 0.0
2014-Sep-19 11:33N 52°09' E 003°37'0 0.0
2014-Sep-19 10:33N 52°09' E 003°37'0 0.1
2014-Sep-19 09:33N 52°09' E 003°37'0 0.2
2014-Sep-19 08:33N 52°09' E 003°37'0 0.1
2014-Sep-19 07:33N 52°09' E 003°37'0 0.0
2014-Sep-19 06:33N 52°09' E 003°37'0 0.0
2014-Sep-19 05:33N 52°09' E 003°37'0 0.0
2014-Sep-19 04:33N 52°09' E 003°37'0 0.0
2014-Sep-19 03:33N 52°09' E 003°37'0 0.0
2014-Sep-19 02:33N 52°09' E 003°37'0 0.3
2014-Sep-19 01:33N 52°09' E 003°37'0 0.1
2014-Sep-19 00:33N 52°09' E 003°37'0 0.0
2014-Sep-18 23:33N 52°09' E 003°37'0 0.0
2014-Sep-18 22:33N 52°09' E 003°37'0 0.0
2014-Sep-18 21:33N 52°09' E 003°37'0 0.2
2014-Sep-18 20:33N 52°09' E 003°37'0 0.3
2014-Sep-18 19:33N 52°09' E 003°37'0 0.0
2014-Sep-18 18:33N 52°09' E 003°37'0 0.0
2014-Sep-18 17:33N 52°09' E 003°37'0 0.1
2014-Sep-18 16:33N 52°09' E 003°37'5 5.2
2014-Sep-18 15:34N 52°05' E 003°43'7 7.4
2014-Sep-18 14:33N 52°03' E 003°55'10 9.9
2014-Sep-18 13:33N 51°58' E 004°08'3 3.2
2014-Sep-18 12:32N 51°55' E 004°12'0 0.0
2014-Sep-18 11:32N 51°55' E 004°12'0 0.0
2014-Sep-18 10:32N 51°55' E 004°12'0 0.0
2014-Sep-18 09:32N 51°55' E 004°12'0 0.0
2014-Sep-18 08:32N 51°55' E 004°12'0 0.0
2014-Sep-18 07:32N 51°55' E 004°12'0 0.0
2014-Sep-18 06:32N 51°55' E 004°12'0 0.0
2014-Sep-18 05:32N 51°55' E 004°12'0 0.0
2014-Sep-18 03:32N 51°55' E 004°12'0 0.0
2014-Sep-18 02:32N 51°55' E 004°12'0 0.0
2014-Sep-18 01:32N 51°55' E 004°12'0 0.0
2014-Sep-18 00:32N 51°55' E 004°12'0 0.0
2014-Sep-17 23:32N 51°55' E 004°12'0 0.0
2014-Sep-17 22:32N 51°55' E 004°12'0 0.0
2014-Sep-17 21:32N 51°55' E 004°12'0 0.0
2014-Sep-17 20:32N 51°55' E 004°12'0 0.0
2014-Sep-17 19:32N 51°55' E 004°12'0 0.0
2014-Sep-17 18:32N 51°55' E 004°12'0 0.0
2014-Sep-17 17:32N 51°55' E 004°12'0 0.0
2014-Sep-17 16:32N 51°55' E 004°12'0 0.0
2014-Sep-17 15:32N 51°55' E 004°12'0 0.0
2014-Sep-17 14:32N 51°55' E 004°12'0 0.0
2014-Sep-17 13:32N 51°55' E 004°12'0 0.0
2014-Sep-17 12:32N 51°55' E 004°12'0 0.0
2014-Sep-17 11:32N 51°55' E 004°12'0 0.0
2014-Sep-17 10:32N 51°55' E 004°12'0 0.0
2014-Sep-17 09:32N 51°55' E 004°12'0 0.0
2014-Sep-17 08:32N 51°55' E 004°12'0 0.0
2014-Sep-17 07:32N 51°55' E 004°12'0 0.0
2014-Sep-17 06:32N 51°55' E 004°12'0 0.0
2014-Sep-17 05:32N 51°55' E 004°12'0 0.0
2014-Sep-17 04:32N 51°55' E 004°12'0 0.0
2014-Sep-17 03:32N 51°55' E 004°12'0 0.0
2014-Sep-17 02:32N 51°55' E 004°12'0 0.0
2014-Sep-17 01:32N 51°55' E 004°12'0 0.0
2014-Sep-17 00:32N 51°55' E 004°12'0 0.0
2014-Sep-16 23:32N 51°55' E 004°12'0 0.0
2014-Sep-16 22:32N 51°55' E 004°12'0 0.0
2014-Sep-16 21:32N 51°55' E 004°12'0 0.0
2014-Sep-16 20:32N 51°55' E 004°12'1 1.4
2014-Sep-16 19:34N 51°56' E 004°11'6 6.1
2014-Sep-16 18:34N 51°60' E 004°02'1111.3
2014-Sep-16 17:33N 52°01' E 003°44'9 9.4
2014-Sep-16 16:34N 51°60' E 003°29'1110.6
2014-Sep-16 15:33N 51°58' E 003°12'1110.9
2014-Sep-16 14:33N 51°56' E 002°54'1111.3
2014-Sep-16 13:33N 51°49' E 002°41'1211.6
2014-Sep-16 12:33N 51°40' E 002°29'1111.2
2014-Sep-16 11:34N 51°32' E 002°16'1111.2
2014-Sep-16 10:34N 51°23' E 002°04'1111.2
2014-Sep-16 09:33N 51°15' E 001°52'1312.9
2014-Sep-16 08:33N 51°05' E 001°40'1111.1
2014-Sep-16 07:33N 50°56' E 001°29'1413.8
2014-Sep-16 06:34N 50°43' E 001°22'1313.1
2014-Sep-16 05:33N 50°34' E 001°07'1313.0
2014-Sep-16 04:33N 50°28' E 000°49'1313.3
2014-Sep-16 03:32N 50°24' E 000°29'1913.8
2014-Sep-16 02:10N 50°17' E 000°01'911.7
2014-Sep-16 01:24N 50°10' W 000°07'1213.7
2014-Sep-16 00:33N 49°58' W 000°07'1212.4
2014-Sep-15 23:33N 49°46' W 000°06'1110.9
2014-Sep-15 22:33N 49°39' E 000°07'1 0.6
2014-Sep-15 21:24N 49°40' E 000°08'0 0.0
2014-Sep-15 20:33N 49°40' E 000°08'0 0.0
2014-Sep-15 19:24N 49°40' E 000°08'0 0.0
2014-Sep-15 18:30N 49°40' E 000°08'0 0.0
2014-Sep-15 17:27N 49°40' E 000°08'0 0.0
2014-Sep-15 16:15N 49°40' E 000°08'0 0.0
2014-Sep-15 15:03N 49°40' E 000°08'0 0.0
2014-Sep-15 14:33N 49°40' E 000°08'0 0.0
2014-Sep-15 13:30N 49°40' E 000°08'0 0.0
2014-Sep-15 12:27N 49°40' E 000°08'0 0.0
2014-Sep-15 11:33N 49°40' E 000°08'0 0.0
2014-Sep-15 10:33N 49°40' E 000°08'0 0.0
2014-Sep-15 09:09N 49°40' E 000°08'0 0.0
2014-Sep-15 08:21N 49°40' E 000°08'0 0.0
2014-Sep-15 07:21N 49°40' E 000°08'0 0.0
2014-Sep-15 06:33N 49°40' E 000°08'0 0.0
2014-Sep-15 05:30N 49°40' E 000°08'0 0.0
2014-Sep-15 04:27N 49°40' E 000°08'0 0.0
2014-Sep-15 03:30N 49°40' E 000°08'0 0.0
2014-Sep-15 02:33N 49°40' E 000°08'0 0.0
2014-Sep-15 01:30N 49°40' E 000°08'0 0.0
2014-Sep-15 00:30N 49°40' E 000°08'0 0.0
2014-Sep-14 23:24N 49°40' E 000°08'0 0.0
2014-Sep-14 22:09N 49°40' E 000°08'0 0.0
2014-Sep-14 20:33N 49°40' E 000°08'0 0.0
2014-Sep-14 18:21N 49°40' E 000°08'0 0.0
2014-Sep-14 17:09N 49°40' E 000°08'0 0.0
2014-Sep-14 16:27N 49°40' E 000°08'0 0.0
2014-Sep-14 15:27N 49°40' E 000°08'0 0.0
2014-Sep-14 13:33N 49°40' E 000°08'0 0.0
2014-Sep-14 08:30N 49°40' E 000°08'1 1.2
2014-Sep-14 07:32N 49°40' E 000°06'6 6.3
2014-Sep-14 06:33N 49°43' W 000°02'8 8.2
2014-Sep-14 05:33N 49°46' W 000°14'1 1.3
2014-Sep-14 04:33N 49°46' W 000°16'0 0.0
2014-Sep-14 03:27N 49°46' W 000°16'0 0.1
2014-Sep-14 02:33N 49°46' W 000°16'0 0.4
2014-Sep-14 01:27N 49°46' W 000°16'0 0.1
2014-Sep-13 21:21N 49°45' W 000°16'0 0.3
2014-Sep-13 20:33N 49°45' W 000°16'0 0.1
2014-Sep-13 19:33N 49°46' W 000°16'0 0.1
2014-Sep-13 18:33N 49°46' W 000°16'0 0.0
2014-Sep-13 17:33N 49°46' W 000°16'0 0.2
2014-Sep-13 16:33N 49°46' W 000°16'3 3.0
2014-Sep-13 15:31N 49°49' W 000°17'6 5.9
2014-Sep-13 14:33N 49°51' W 000°25'60 9.8
2014-Sep-13 08:27N 49°56' W 001°58'29411.4
2014-Sep-12 06:33N 46°38' W 007°24'  

Dump ship's entire track history